Terminal Aerodrome Forecast
Issued by NWS

Home | Current Version | Previous Version | Text Only | Print | Product List | Glossary On
Versions: 1 2 3 4 5 6 7 8 9 10 11 12 13 14
985
FTUS45 KPIH 212320
TAFSUN
TAF
KSUN 212320Z 2200/2306 20008KT P6SM SKC
     FM220400 32011KT P6SM SKC
     FM221700 14009KT P6SM SKC
     FM222300 19009KT P6SM SKC
     FM230400 32011KT P6SM SKC
      AMD LTD TO CLD VIS AND WIND 2205/2213=

USA.gov is the U.S. government's official web portal to all federal, state and local government web resources and services.